Time;durP1;ratioP1;P1;durP2;ratioP2;P2;SDS_P1;SDS_P2;PMS_P1;PMS_P2;Temp;Humidity;BMP_temperature;BMP_pressure;BME280_temperature;BME280_humidity;BME280_pressure;Samples;Min_cycle;Max_cycle;Signal;HPM_P1;HPM_P2
2022/06/05 00:00:09;;;;;;;30.75;22.05;;;;;;;15.85;100.00;98412.46;1762345;80;21376;-87
2022/06/05 00:03:15;;;;;;;30.68;24.18;;;;;;;15.84;100.00;98410.84;1775721;80;21021;-88
2022/06/05 00:06:08;;;;;;;26.85;20.52;;;;;;;15.84;100.00;98413.58;1764079;80;21457;-88
2022/06/05 00:09:07;;;;;;;27.95;22.58;;;;;;;15.83;100.00;98410.59;1774690;80;21629;-87
2022/06/05 00:11:47;;;;;;;33.42;23.18;;;;;;;15.82;100.00;98412.27;1773449;80;21025;-85
2022/06/05 00:14:14;;;;;;;30.23;22.52;;;;;;;15.82;100.00;98410.34;1774426;80;21102;-85
2022/06/05 00:16:40;;;;;;;26.55;21.27;;;;;;;15.81;100.00;98404.64;1779235;80;21623;-84
2022/06/05 00:19:06;;;;;;;35.48;24.57;;;;;;;15.79;100.00;98414.48;1778951;80;21140;-85
2022/06/05 00:21:32;;;;;;;35.35;24.70;;;;;;;15.78;100.00;98414.23;1737827;80;20919;-84
2022/06/05 00:23:58;;;;;;;30.70;22.73;;;;;;;15.79;100.00;98413.67;1743469;80;20964;-87
2022/06/05 00:26:46;;;;;;;29.52;22.93;;;;;;;15.82;100.00;98411.72;1739976;80;20838;-84
2022/06/05 00:29:55;;;;;;;34.08;25.30;;;;;;;15.76;100.00;98404.73;1738128;80;21003;-83
2022/06/05 00:32:44;;;;;;;39.53;26.20;;;;;;;15.74;100.00;98415.97;1775874;80;21282;-85
2022/06/05 00:35:15;;;;;;;37.83;24.12;;;;;;;15.75;100.00;98417.58;1761744;80;21082;-88
2022/06/05 00:38:00;;;;;;;35.63;24.25;;;;;;;15.73;100.00;98416.27;1771523;81;21045;-87
2022/06/05 00:40:38;;;;;;;33.45;25.45;;;;;;;15.72;100.00;98420.09;1769312;80;21488;-88
2022/06/05 00:43:10;;;;;;;34.92;24.87;;;;;;;15.69;100.00;98416.61;1774225;80;21304;-87
2022/06/05 00:45:39;;;;;;;32.30;23.45;;;;;;;15.70;100.00;98426.42;1777796;80;21116;-88
2022/06/05 00:48:05;;;;;;;30.95;24.05;;;;;;;15.68;100.00;98415.80;1778337;80;21040;-85
2022/06/05 00:50:31;;;;;;;31.75;25.27;;;;;;;15.72;100.00;98415.99;1754318;80;20988;-87
2022/06/05 00:53:00;;;;;;;32.58;24.77;;;;;;;15.72;100.00;98418.72;1778771;80;21050;-87
2022/06/05 00:55:30;;;;;;;42.88;28.55;;;;;;;15.72;100.00;98419.56;1760411;80;20979;-88
2022/06/05 00:57:56;;;;;;;43.17;28.25;;;;;;;15.72;100.00;98418.20;1778920;79;21784;-85
2022/06/05 01:00:29;;;;;;;37.73;26.65;;;;;;;15.72;100.00;98425.55;1770232;80;21025;-84
2022/06/05 01:02:56;;;;;;;31.30;25.30;;;;;;;15.68;100.00;98417.73;1778881;79;20957;-88
2022/06/05 01:05:23;;;;;;;30.52;25.02;;;;;;;15.68;100.00;98424.55;1779171;80;21024;-85
2022/06/05 01:07:49;;;;;;;34.63;24.67;;;;;;;15.67;100.00;98427.04;1778781;79;21004;-84
2022/06/05 01:10:16;;;;;;;32.75;24.32;;;;;;;15.63;100.00;98419.17;1779295;80;21746;-88
2022/06/05 01:13:08;;;;;;;33.13;25.10;;;;;;;15.60;100.00;98423.86;1778603;80;21000;-84
2022/06/05 01:16:03;;;;;;;30.32;23.62;;;;;;;15.58;100.00;98416.53;1766491;80;21024;-87
2022/06/05 01:19:02;;;;;;;28.10;21.93;;;;;;;15.59;100.00;98416.22;1745290;80;21013;-87
2022/06/05 01:21:56;;;;;;;25.90;20.43;;;;;;;15.56;100.00;98417.40;1752367;80;21256;-88
2022/06/05 01:24:49;;;;;;;32.83;23.90;;;;;;;15.52;100.00;98419.34;1779315;80;21152;-84
2022/06/05 01:27:19;;;;;;;31.15;22.37;;;;;;;15.50;100.00;98419.41;1747848;80;21023;-84
2022/06/05 01:29:55;;;;;;;27.77;22.62;;;;;;;15.45;100.00;98409.38;1762134;80;20995;-88
2022/06/05 01:32:35;;;;;;;26.87;21.42;;;;;;;15.40;100.00;98404.58;1774182;79;21017;-85
2022/06/05 01:35:19;;;;;;;27.77;20.70;;;;;;;15.41;100.00;98406.20;1770894;80;21052;-84
2022/06/05 01:37:49;;;;;;;33.45;20.97;;;;;;;15.41;100.00;98408.37;1778747;79;22932;-88
2022/06/05 01:40:25;;;;;;;27.80;21.73;;;;;;;15.46;100.00;98406.08;1757626;80;21053;-85
2022/06/05 01:43:10;;;;;;;27.45;21.82;;;;;;;15.41;100.00;98400.18;1745938;80;21334;-85
2022/06/05 01:45:48;;;;;;;31.85;22.65;;;;;;;15.42;100.00;98415.45;1770671;80;21040;-84
2022/06/05 01:48:33;;;;;;;31.05;21.52;;;;;;;15.44;100.00;98413.77;1742816;80;24311;-84
2022/06/05 01:51:06;;;;;;;28.42;22.58;;;;;;;15.43;100.00;98412.16;1749353;80;21520;-88
2022/06/05 01:53:40;;;;;;;29.50;22.00;;;;;;;15.41;100.00;98413.02;1779020;80;21413;-87
2022/06/05 01:56:11;;;;;;;27.42;20.72;;;;;;;15.41;100.00;98411.66;1779507;80;21047;-84
2022/06/05 01:58:50;;;;;;;28.23;21.90;;;;;;;15.37;100.00;98411.44;1778970;79;21000;-84
2022/06/05 02:01:23;;;;;;;29.98;22.07;;;;;;;15.34;100.00;98412.61;1760514;80;20977;-87
2022/06/05 02:04:07;;;;;;;31.42;23.83;;;;;;;15.31;100.00;98403.66;1779057;80;21118;-87
2022/06/05 02:06:40;;;;;;;30.40;22.90;;;;;;;15.24;100.00;98406.22;1744246;82;21229;-84
2022/06/05 02:09:13;;;;;;;28.80;23.35;;;;;;;15.17;100.00;98410.45;1738677;82;21083;-84
2022/06/05 02:11:39;;;;;;;29.32;21.48;;;;;;;15.13;100.00;98409.44;1737999;80;21457;-87
2022/06/05 02:14:07;;;;;;;31.65;23.20;;;;;;;15.09;100.00;98419.32;1743046;81;20903;-84
2022/06/05 02:16:34;;;;;;;27.52;20.00;;;;;;;15.03;100.00;98417.22;1708001;82;21299;-85
2022/06/05 02:19:04;;;;;;;29.18;20.82;;;;;;;14.94;100.00;98413.00;1718458;83;21045;-85
2022/06/05 02:21:32;;;;;;;26.12;20.82;;;;;;;14.85;100.00;98408.53;1719536;83;21064;-84
2022/06/05 02:23:58;;;;;;;27.33;20.00;;;;;;;14.81;100.00;98410.25;1774463;80;21053;-85
2022/06/05 02:26:26;;;;;;;27.17;19.80;;;;;;;14.76;100.00;98412.48;1744497;82;20974;-84
2022/06/05 02:28:52;;;;;;;25.10;20.35;;;;;;;14.72;100.00;98407.38;1744725;82;21163;-84
2022/06/05 02:31:45;;;;;;;25.40;20.17;;;;;;;14.70;100.00;98409.61;1718938;82;20877;-87
2022/06/05 02:34:50;;;;;;;26.48;19.15;;;;;;;14.74;100.00;98415.27;1746446;80;21029;-83
2022/06/05 02:37:49;;;;;;;28.00;19.37;;;;;;;14.74;100.00;98411.98;1778388;79;21280;-85
2022/06/05 02:40:50;;;;;;;26.17;17.75;;;;;;;14.74;100.00;98411.17;1772806;80;21005;-87
2022/06/05 02:43:31;;;;;;;20.70;15.18;;;;;;;14.75;100.00;98413.59;1778737;79;21141;-87
2022/06/05 02:46:22;;;;;;;26.85;18.70;;;;;;;14.73;100.00;98419.91;1765899;80;21000;-84
2022/06/05 02:48:56;;;;;;;23.32;17.02;;;;;;;14.67;100.00;98427.35;1736708;80;20995;-84
2022/06/05 02:51:34;;;;;;;19.73;16.35;;;;;;;14.67;100.00;98435.53;1737666;80;21399;-87
2022/06/05 02:54:00;;;;;;;20.32;16.55;;;;;;;14.64;100.00;98438.06;1737408;80;21504;-85
2022/06/05 02:56:29;;;;;;;23.20;17.45;;;;;;;14.60;100.00;98432.36;1756350;80;21324;-88
2022/06/05 02:58:56;;;;;;;21.62;16.17;;;;;;;14.56;100.00;98431.91;1743153;80;21035;-85
2022/06/05 03:04:07;;;;;;;19.67;14.73;;;;;;;14.55;100.00;98431.66;1778268;80;21481;-84
2022/06/05 03:06:33;;;;;;;23.57;16.50;;;;;;;14.57;100.00;98436.25;1755653;80;21071;-88
2022/06/05 03:08:59;;;;;;;21.70;16.45;;;;;;;14.56;100.00;98430.55;1742818;80;21082;-87
2022/06/05 03:11:26;;;;;;;22.45;16.55;;;;;;;14.58;100.00;98433.22;1760525;80;22466;-87
2022/06/05 03:13:52;;;;;;;24.67;16.95;;;;;;;14.63;100.00;98434.52;1769324;80;21037;-87
2022/06/05 03:16:18;;;;;;;22.17;16.57;;;;;;;14.66;100.00;98433.92;1759003;80;20865;-87
2022/06/05 03:18:44;;;;;;;18.40;16.42;;;;;;;14.69;100.00;98425.69;1749482;80;21359;-85
2022/06/05 03:21:10;;;;;;;22.87;17.40;;;;;;;14.72;100.00;98426.48;1778208;80;21872;-87
2022/06/05 03:23:35;;;;;;;18.17;14.75;;;;;;;14.72;100.00;98429.20;1776507;80;20874;-88
2022/06/05 03:26:01;;;;;;;17.30;14.05;;;;;;;14.71;100.00;98434.41;1776983;80;20984;-85
2022/06/05 03:28:27;;;;;;;17.82;13.48;;;;;;;14.75;100.00;98442.80;1778988;79;20893;-84
2022/06/05 03:30:53;;;;;;;15.58;13.53;;;;;;;14.79;100.00;98446.02;1760724;80;21579;-84
2022/06/05 03:33:19;;;;;;;20.32;15.60;;;;;;;14.83;100.00;98449.75;1778592;80;21161;-84
2022/06/05 03:35:46;;;;;;;26.42;15.72;;;;;;;14.88;100.00;98451.05;1760168;80;20873;-88
2022/06/05 03:38:13;;;;;;;26.85;18.75;;;;;;;14.90;100.00;98443.92;1778789;79;20989;-87
2022/06/05 03:40:40;;;;;;;25.68;18.35;;;;;;;14.85;100.00;98448.89;1778728;80;21436;-85
2022/06/05 03:43:06;;;;;;;21.62;16.32;;;;;;;14.86;100.00;98449.15;1778919;80;21048;-87
2022/06/05 03:45:32;;;;;;;19.98;14.13;;;;;;;14.88;100.00;98446.15;1737529;80;21053;-85
2022/06/05 03:47:58;;;;;;;17.40;14.18;;;;;;;14.89;100.00;98446.41;1778965;79;20826;-85
2022/06/05 03:50:24;;;;;;;18.17;13.13;;;;;;;14.90;100.00;98445.29;1760646;80;20904;-87
2022/06/05 03:52:50;;;;;;;15.50;13.75;;;;;;;14.93;100.00;98452.31;1779325;79;20830;-84
2022/06/05 03:55:18;;;;;;;17.48;13.20;;;;;;;14.92;100.00;98452.06;1760315;80;21549;-88
2022/06/05 03:57:44;;;;;;;18.02;13.88;;;;;;;15.01;100.00;98459.58;1737444;82;21680;-88
2022/06/05 04:00:11;;;;;;;17.27;12.25;;;;;;;15.01;100.00;98451.39;1763654;80;20925;-87
2022/06/05 04:02:37;;;;;;;16.77;13.98;;;;;;;15.04;100.00;98451.63;1769887;80;21051;-85
2022/06/05 04:05:04;;;;;;;15.60;13.32;;;;;;;15.03;100.00;98455.43;1779488;79;20853;-84
2022/06/05 04:07:30;;;;;;;14.98;11.83;;;;;;;15.01;100.00;98454.92;1778668;80;21029;-87
2022/06/05 04:09:56;;;;;;;14.95;11.78;;;;;;;15.10;100.00;98458.59;1779103;80;21153;-87
2022/06/05 04:12:22;;;;;;;15.85;12.25;;;;;;;15.09;100.00;98456.97;1779000;80;21638;-88
2022/06/05 04:14:48;;;;;;;16.20;12.93;;;;;;;15.09;100.00;98461.07;1762980;80;21043;-84
2022/06/05 04:17:14;;;;;;;15.40;12.10;;;;;;;15.13;100.00;98462.11;1743875;80;20888;-85
2022/06/05 04:19:40;;;;;;;14.73;11.10;;;;;;;15.18;100.00;98462.56;1745435;80;21045;-88
2022/06/05 04:22:06;;;;;;;15.70;10.28;;;;;;;15.19;100.00;98466.35;1768339;80;21165;-88
2022/06/05 04:24:32;;;;;;;13.98;10.58;;;;;;;15.27;100.00;98458.59;1777291;80;20918;-88
2022/06/05 04:26:58;;;;;;;15.95;13.35;;;;;;;15.35;100.00;98456.54;1779614;79;21023;-85
2022/06/05 04:29:24;;;;;;;14.60;11.95;;;;;;;15.36;100.00;98457.59;1770898;80;21059;-86
2022/06/05 04:31:50;;;;;;;16.70;13.75;;;;;;;15.45;100.00;98452.26;1779003;80;20969;-88
2022/06/05 04:34:19;;;;;;;13.88;12.33;;;;;;;15.48;100.00;98459.31;1779196;80;21100;-87
2022/06/05 04:36:45;;;;;;;16.12;13.32;;;;;;;15.58;100.00;98466.50;1778926;79;20993;-88
2022/06/05 04:39:12;;;;;;;16.25;12.50;;;;;;;15.55;100.00;98463.55;1754974;80;21406;-86
2022/06/05 04:41:38;;;;;;;15.55;13.43;;;;;;;15.59;100.00;98463.22;1754455;80;20984;-85
2022/06/05 04:44:05;;;;;;;15.40;12.05;;;;;;;15.66;100.00;98458.20;1744126;80;20992;-85
2022/06/05 04:46:31;;;;;;;15.40;11.70;;;;;;;15.69;100.00;98457.03;1779084;80;21250;-88
2022/06/05 04:48:57;;;;;;;17.98;14.28;;;;;;;15.89;100.00;98448.98;1778831;80;20961;-87
2022/06/05 04:51:23;;;;;;;15.93;13.15;;;;;;;16.06;100.00;98452.47;1779243;80;20969;-85
2022/06/05 04:53:51;;;;;;;19.35;15.50;;;;;;;16.19;100.00;98449.48;1778879;79;21131;-87
2022/06/05 04:56:20;;;;;;;19.35;14.58;;;;;;;16.21;100.00;98446.69;1779132;80;21032;-87
2022/06/05 04:58:46;;;;;;;24.85;15.05;;;;;;;16.35;100.00;98448.86;1778661;79;21286;-84
2022/06/05 05:01:15;;;;;;;19.37;15.18;;;;;;;16.57;99.86;98449.44;1771006;80;20988;-87
2022/06/05 05:03:41;;;;;;;17.65;14.50;;;;;;;16.68;99.52;98454.70;1737896;80;21047;-87
2022/06/05 05:06:07;;;;;;;22.70;16.25;;;;;;;16.66;99.37;98460.46;1771225;80;20917;-88
2022/06/05 05:08:33;;;;;;;17.85;15.55;;;;;;;16.64;98.77;98459.41;1777015;80;21114;-88
2022/06/05 05:10:59;;;;;;;19.10;15.38;;;;;;;16.52;98.34;98463.25;1779245;80;21236;-84
2022/06/05 05:13:25;;;;;;;26.80;18.92;;;;;;;16.47;98.52;98468.02;1778776;80;21523;-88
2022/06/05 05:15:52;;;;;;;22.13;17.17;;;;;;;16.35;98.60;98467.19;1770839;80;20944;-87
2022/06/05 05:18:19;;;;;;;23.47;17.75;;;;;;;16.35;98.81;98467.19;1778646;79;21599;-87
2022/06/05 05:20:44;;;;;;;19.20;15.15;;;;;;;16.37;98.80;98470.42;1779078;80;21079;-87
2022/06/05 05:23:10;;;;;;;27.15;15.90;;;;;;;16.41;98.74;98470.07;1778756;79;21062;-85
2022/06/05 05:25:37;;;;;;;23.20;17.95;;;;;;;16.46;98.58;98463.66;1764131;80;21003;-85
2022/06/05 05:28:06;;;;;;;23.32;18.30;;;;;;;16.45;98.70;98461.49;1736895;81;21069;-87
2022/06/05 05:30:33;;;;;;;21.57;18.25;;;;;;;16.55;98.88;98474.13;1761373;80;21052;-85
2022/06/05 05:32:59;;;;;;;24.60;19.30;;;;;;;16.64;98.84;98477.19;1777833;80;21080;-88
2022/06/05 05:35:25;;;;;;;24.95;19.73;;;;;;;16.76;98.53;98471.23;1778995;80;21254;-85
2022/06/05 05:37:51;;;;;;;23.60;18.15;;;;;;;16.81;97.71;98483.41;1779010;80;21047;-87
2022/06/05 05:43:01;;;;;;;26.40;18.40;;;;;;;17.00;97.09;98477.76;1778855;80;20985;-85
2022/06/05 05:45:27;;;;;;;23.38;18.85;;;;;;;17.17;97.34;98479.81;1778396;80;21058;-85
2022/06/05 05:47:53;;;;;;;22.45;17.35;;;;;;;17.25;96.38;98474.95;1779258;79;21645;-85
2022/06/05 05:50:19;;;;;;;29.18;18.17;;;;;;;17.33;95.79;98476.14;1779000;80;20916;-86
2022/06/05 05:52:45;;;;;;;21.23;18.02;;;;;;;17.45;96.02;98479.13;1778569;80;21488;-88
2022/06/05 05:55:13;;;;;;;21.07;18.60;;;;;;;17.58;95.55;98476.85;1778138;80;20854;-87
2022/06/05 05:57:40;;;;;;;22.30;17.30;;;;;;;17.66;95.23;98483.50;1779160;80;21417;-85
2022/06/05 06:00:09;;;;;;;18.10;15.60;;;;;;;17.83;95.17;98474.59;1778171;80;21776;-88
2022/06/05 06:02:35;;;;;;;;;;;;;;;17.98;93.78;98470.06;1790239;80;21047;-85
2022/06/05 06:05:01;;;;;;;21.65;17.48;;;;;;;17.88;93.26;98469.78;1787689;80;20215;-85
2022/06/05 06:07:26;;;;;;;20.72;16.82;;;;;;;17.84;93.56;98472.89;1787811;80;20862;-87
2022/06/05 06:09:52;;;;;;;22.70;18.37;;;;;;;17.86;93.12;98483.00;1778140;80;21041;-85
2022/06/05 06:12:18;;;;;;;24.87;17.87;;;;;;;17.96;93.04;98481.34;1783799;78;22007;-87
2022/06/05 06:14:44;;;;;;;23.30;16.62;;;;;;;18.05;93.17;98474.52;1787738;80;21539;-88
2022/06/05 06:17:10;;;;;;;21.55;16.02;;;;;;;18.18;92.06;98461.23;1787842;78;20842;-85
2022/06/05 06:19:36;;;;;;;24.90;15.38;;;;;;;18.31;92.29;98460.31;1787737;80;20933;-88
2022/06/05 06:22:03;;;;;;;17.82;15.18;;;;;;;18.42;90.44;98461.37;1763950;80;21001;-86
2022/06/05 06:24:29;;;;;;;19.27;16.65;;;;;;;18.53;91.12;98462.11;1760821;80;21091;-85
2022/06/05 06:26:55;;;;;;;18.82;16.42;;;;;;;18.56;90.13;98461.49;1787884;78;21658;-85
2022/06/05 06:29:21;;;;;;;19.40;15.98;;;;;;;18.81;91.13;98465.41;1778943;80;20966;-87
2022/06/05 06:31:47;;;;;;;18.62;15.90;;;;;;;19.05;89.55;98472.33;1776961;78;21621;-88
2022/06/05 06:34:13;;;;;;;18.45;15.55;;;;;;;19.09;89.56;98471.94;1787932;80;20980;-88
2022/06/05 06:36:39;;;;;;;18.80;14.85;;;;;;;19.12;89.30;98463.05;1788195;78;21188;-87
2022/06/05 06:39:05;;;;;;;20.95;17.05;;;;;;;19.36;88.33;98460.59;1767221;80;20964;-87
2022/06/05 06:41:31;;;;;;;19.82;17.73;;;;;;;19.45;87.73;98461.37;1747500;80;20990;-88
2022/06/05 06:43:57;;;;;;;17.87;15.85;;;;;;;19.45;87.58;98460.56;1760031;80;20868;-86
2022/06/05 06:46:23;;;;;;;17.27;15.32;;;;;;;19.56;86.39;98453.61;1787856;80;20865;-87
2022/06/05 06:48:49;;;;;;;20.70;14.73;;;;;;;19.59;85.57;98446.67;1787827;80;21153;-88
2022/06/05 06:51:16;;;;;;;16.05;14.38;;;;;;;19.70;85.15;98450.09;1788001;80;22136;-88
2022/06/05 06:53:42;;;;;;;18.35;15.60;;;;;;;19.83;84.85;98441.98;1787638;80;21469;-85
2022/06/05 06:56:18;;;;;;;21.42;16.75;;;;;;;19.88;83.87;98439.02;1787906;80;20965;-86
2022/06/05 06:58:44;;;;;;;18.55;16.55;;;;;;;20.00;84.53;98441.89;1787692;78;21035;-88
2022/06/05 07:01:10;;;;;;;20.85;16.15;;;;;;;20.14;84.99;98438.32;1788069;80;21524;-87
2022/06/05 07:03:36;;;;;;;16.93;14.80;;;;;;;20.43;84.35;98431.20;1787682;80;21084;-85
2022/06/05 07:06:05;;;;;;;17.12;15.38;;;;;;;20.55;80.85;98427.17;1787791;80;20988;-88
2022/06/05 07:08:31;;;;;;;16.23;14.63;;;;;;;20.47;81.51;98426.09;1787982;78;21019;-88
2022/06/05 07:10:57;;;;;;;18.35;14.33;;;;;;;20.76;81.55;98428.53;1772189;80;21600;-85
2022/06/05 07:13:23;;;;;;;27.05;17.32;;;;;;;20.83;80.50;98422.72;1760586;80;21333;-88
2022/06/05 07:15:49;;;;;;;17.82;15.23;;;;;;;21.12;80.52;98425.16;1787661;80;21340;-88
2022/06/05 07:18:15;;;;;;;19.82;14.50;;;;;;;21.46;77.55;98420.45;1787823;80;20857;-86
2022/06/05 07:20:42;;;;;;;16.20;13.58;;;;;;;21.53;77.76;98417.34;1787629;79;20952;-85
2022/06/05 07:23:08;;;;;;;16.87;14.25;;;;;;;21.68;75.90;98415.87;1787738;80;21547;-86
2022/06/05 07:25:34;;;;;;;16.23;13.15;;;;;;;21.55;77.39;98417.02;1787491;80;21045;-85
2022/06/05 07:28:00;;;;;;;16.07;12.90;;;;;;;21.69;76.93;98418.86;1787697;78;20980;-87
2022/06/05 07:30:26;;;;;;;15.32;12.40;;;;;;;21.81;74.96;98415.33;1787560;80;21091;-86
2022/06/05 07:32:53;;;;;;;17.37;12.90;;;;;;;22.12;76.10;98413.38;1787790;80;22412;-86
2022/06/05 07:35:18;;;;;;;19.17;12.75;;;;;;;22.63;74.80;98415.95;1787681;80;21031;-86
2022/06/05 07:37:44;;;;;;;14.40;12.03;;;;;;;23.01;73.41;98422.42;1787854;78;21332;-89
2022/06/05 07:40:11;;;;;;;18.60;12.75;;;;;;;23.35;70.08;98425.14;1767971;80;20820;-86
2022/06/05 07:42:38;;;;;;;13.53;12.13;;;;;;;23.43;70.84;98426.13;1787633;80;21052;-89
2022/06/05 07:45:04;;;;;;;13.08;11.70;;;;;;;23.69;70.45;98424.27;1775144;80;21612;-86
2022/06/05 07:47:30;;;;;;;12.33;11.22;;;;;;;24.06;68.94;98426.16;1755770;80;21089;-89
2022/06/05 07:49:56;;;;;;;10.90;9.90;;;;;;;24.17;67.15;98425.83;1772793;80;21027;-89
2022/06/05 07:55:08;;;;;;;13.80;9.85;;;;;;;24.21;65.18;98424.55;1774722;80;21042;-89
2022/06/05 07:57:34;;;;;;;13.30;9.90;;;;;;;24.56;65.25;98420.42;1787028;78;21038;-89
2022/06/05 08:00:00;;;;;;;11.12;9.93;;;;;;;25.03;64.28;98424.40;1776695;80;20978;-86
2022/06/05 08:02:27;;;;;;;23.52;17.40;;;;;;;25.69;64.09;98420.28;1785221;78;20877;-89
2022/06/05 08:04:55;;;;;;;10.90;9.90;;;;;;;26.07;62.43;98423.54;1787927;80;21071;-86
2022/06/05 08:07:24;;;;;;;13.38;12.10;;;;;;;26.54;61.03;98421.68;1788076;80;21492;-86
2022/06/05 08:09:52;;;;;;;10.45;9.03;;;;;;;26.92;62.03;98421.20;1787815;80;20986;-87
2022/06/05 08:12:19;;;;;;;11.10;7.85;;;;;;;27.38;58.05;98421.75;1760716;80;21053;-87
2022/06/05 08:14:48;;;;;;;7.80;7.10;;;;;;;27.72;55.20;98421.13;1778617;80;21072;-89
2022/06/05 08:17:17;;;;;;;10.30;8.43;;;;;;;27.59;53.50;98423.14;1788738;80;21040;-89
2022/06/05 08:19:43;;;;;;;12.03;8.23;;;;;;;26.72;52.44;98421.92;1783752;80;21068;-89
2022/06/05 08:22:11;;;;;;;8.70;7.90;;;;;;;26.89;55.73;98418.56;1787930;80;21052;-90
2022/06/05 08:24:37;;;;;;;11.73;8.98;;;;;;;28.04;55.44;98410.86;1787862;80;21020;-87
2022/06/05 08:27:04;;;;;;;8.83;8.10;;;;;;;28.04;55.44;98410.86;1763754;80;21337;-90
2022/06/05 08:29:30;;;;;;;8.10;7.30;;;;;;;27.78;50.66;98416.02;1760865;80;21429;-87
2022/06/05 08:31:56;;;;;;;9.70;7.30;;;;;;;28.29;51.63;98420.22;1787823;78;21027;-86
2022/06/05 08:34:23;;;;;;;8.83;7.97;;;;;;;27.40;49.87;98419.38;1781380;80;21086;-91
2022/06/05 08:41:26;;;;;;;8.48;7.67;;;;;;;27.46;48.96;98419.25;1787826;78;21135;-88
2022/06/05 08:42:18;;;;;;;15.00;6.92;;;;;;;28.88;51.12;98408.41;1764202;80;21046;-87
2022/06/05 08:45:02;;;;;;;7.75;7.03;;;;;;;29.33;48.62;98402.59;1769959;80;21016;-90
2022/06/05 08:47:48;;;;;;;10.13;6.12;;;;;;;29.53;49.06;98408.64;1786569;79;21001;-90
2022/06/05 08:50:37;;;;;;;6.40;5.80;;;;;;;30.45;46.43;98406.45;1786917;80;21074;-90
2022/06/05 08:53:39;;;;;;;6.78;6.22;;;;;;;30.64;45.63;98406.59;1786473;80;21531;-90
2022/06/05 08:56:05;;;;;;;7.17;6.47;;;;;;;31.11;43.87;98396.25;1787648;80;21043;-90
2022/06/05 08:58:46;;;;;;;6.50;5.90;;;;;;;30.29;44.34;98399.89;1787710;78;21078;-87
2022/06/05 09:01:22;;;;;;;8.75;6.37;;;;;;;30.87;40.55;98390.17;1787522;80;20985;-87
2022/06/05 09:04:00;;;;;;;5.90;5.35;;;;;;;31.60;42.87;98394.36;1787665;80;21523;-91
2022/06/05 09:06:34;;;;;;;8.15;5.58;;;;;;;30.48;40.04;98392.45;1787344;78;21138;-87
2022/06/05 09:09:05;;;;;;;8.40;7.05;;;;;;;29.26;43.34;98388.62;1787447;80;21266;-87
2022/06/05 09:11:38;;;;;;;7.95;6.20;;;;;;;29.26;43.34;98388.62;1773117;78;20999;-87
2022/06/05 09:14:08;;;;;;;6.03;5.15;;;;;;;30.14;42.37;98394.91;1779836;80;21011;-87
2022/06/05 09:16:40;;;;;;;7.05;3.70;;;;;;;31.02;40.87;98390.31;1787778;78;21019;-87
2022/06/05 09:19:06;;;;;;;5.87;3.42;;;;;;;31.07;34.38;98397.46;1787948;80;21144;-90
2022/06/05 09:21:42;;;;;;;5.40;4.15;;;;;;;31.14;32.44;98400.23;1770368;80;20878;-87
2022/06/05 09:24:23;;;;;;;8.45;3.20;;;;;;;31.85;32.89;98404.62;1762345;80;21400;-87
2022/06/05 09:26:59;;;;;;;5.30;3.25;;;;;;;29.64;32.67;98412.23;1787688;80;21092;-91
2022/06/05 09:29:37;;;;;;;3.30;3.00;;;;;;;29.84;34.61;98406.48;1786003;80;20992;-90
2022/06/05 09:32:25;;;;;;;6.60;3.12;;;;;;;30.59;33.63;98403.59;1787742;78;21136;-91
2022/06/05 09:34:59;;;;;;;4.12;3.80;;;;;;;28.51;35.61;98405.02;1780645;80;21377;-90
2022/06/05 09:37:51;;;;;;;4.05;3.70;;;;;;;28.51;35.61;98405.02;1761344;80;21021;-89
2022/06/05 09:40:36;;;;;;;4.62;4.22;;;;;;;29.39;35.91;98398.20;1783659;80;20997;-87
2022/06/05 09:43:16;;;;;;;9.08;4.65;;;;;;;30.10;33.23;98402.52;1756004;81;21633;-89
2022/06/05 09:46:00;;;;;;;9.60;3.72;;;;;;;29.74;33.28;98407.28;1762374;80;21124;-88
2022/06/05 09:48:44;;;;;;;4.85;4.33;;;;;;;29.91;33.16;98400.08;1787293;80;21072;-87
2022/06/05 09:51:10;;;;;;;3.95;3.55;;;;;;;30.20;32.96;98396.71;1787599;80;21057;-86
2022/06/05 09:53:51;;;;;;;6.28;3.58;;;;;;;29.53;33.42;98400.27;1787710;80;21482;-91
2022/06/05 09:59:45;;;;;;;4.37;3.98;;;;;;;32.87;30.18;98402.66;1787815;80;21951;-87
2022/06/05 10:02:12;;;;;;;4.45;4.00;;;;;;;32.16;31.35;98404.16;1780278;78;21000;-90
2022/06/05 10:04:38;;;;;;;4.22;3.83;;;;;;;33.19;30.40;98399.44;1788168;80;21036;-90
2022/06/05 10:07:24;;;;;;;6.20;4.83;;;;;;;31.50;29.92;98406.44;1763229;80;21022;-90
2022/06/05 10:09:50;;;;;;;5.10;3.87;;;;;;;33.43;29.38;98396.12;1770855;80;21087;-87
2022/06/05 10:12:22;;;;;;;5.72;4.25;;;;;;;34.30;28.65;98393.70;1788064;80;21179;-90
2022/06/05 10:15:05;;;;;;;7.35;3.92;;;;;;;33.22;27.96;98381.73;1779403;80;21010;-90
2022/06/05 10:17:51;;;;;;;3.95;3.22;;;;;;;34.50;28.26;98386.11;1786570;78;20997;-90
2022/06/05 10:20:58;;;;;;;6.22;3.40;;;;;;;33.15;26.22;98383.23;1784254;80;21504;-90
2022/06/05 10:23:39;;;;;;;3.90;3.50;;;;;;;33.08;25.22;98389.77;1788456;78;21023;-90
2022/06/05 10:26:37;;;;;;;5.28;3.35;;;;;;;35.38;24.36;98390.36;1787877;80;21306;-88
2022/06/05 10:29:30;;;;;;;9.75;3.62;;;;;;;34.39;25.40;98387.52;1788091;80;20995;-91
2022/06/05 10:32:07;;;;;;;7.05;4.62;;;;;;;32.00;29.36;98389.28;1771685;80;20953;-88
2022/06/05 10:34:47;;;;;;;6.77;4.13;;;;;;;32.14;29.19;98392.58;1781941;80;21088;-91
2022/06/05 10:37:27;;;;;;;7.40;4.08;;;;;;;32.39;28.34;98385.33;1788066;78;21007;-91
2022/06/05 10:40:17;;;;;;;5.67;3.67;;;;;;;33.93;26.95;98379.31;1788138;80;21004;-91
2022/06/05 10:43:01;;;;;;;5.58;3.17;;;;;;;31.13;28.66;98388.84;1783355;78;21044;-91
2022/06/05 10:45:49;;;;;;;3.85;3.47;;;;;;;34.19;24.71;98380.46;1787980;79;20980;-87
2022/06/05 10:48:47;;;;;;;4.25;3.85;;;;;;;33.20;25.31;98372.34;1787968;78;21095;-91
2022/06/05 10:51:43;;;;;;;6.35;3.65;;;;;;;34.10;24.04;98366.17;1759277;81;21082;-88
2022/06/05 10:54:23;;;;;;;9.00;3.35;;;;;;;35.40;24.23;98359.75;1784201;79;21276;-88
2022/06/05 10:57:03;;;;;;;5.15;3.10;;;;;;;36.37;23.19;98364.58;1766936;80;21114;-88
2022/06/05 10:59:55;;;;;;;4.75;3.10;;;;;;;34.48;23.12;98360.44;1765511;80;21091;-90
2022/06/05 11:02:51;;;;;;;4.03;2.85;;;;;;;35.70;22.38;98362.05;1760047;80;21010;-91
2022/06/05 11:05:53;;;;;;;4.28;3.40;;;;;;;35.08;23.37;98349.17;1763315;80;21165;-90
2022/06/05 11:08:46;;;;;;;6.65;3.80;;;;;;;34.38;21.75;98345.95;1787942;78;21297;-88
2022/06/05 11:14:46;;;;;;;5.37;2.92;;;;;;;34.79;22.74;98356.02;1774368;80;20986;-91
2022/06/05 11:17:35;;;;;;;5.78;2.98;;;;;;;36.66;22.50;98346.25;1785516;80;21801;-91
2022/06/05 11:20:21;;;;;;;3.20;2.90;;;;;;;37.38;20.82;98344.13;1757227;80;21016;-88
2022/06/05 11:23:00;;;;;;;3.52;3.12;;;;;;;36.86;20.33;98340.45;1787823;78;21045;-90
2022/06/05 11:25:40;;;;;;;3.95;3.50;;;;;;;35.01;23.06;98347.30;1767456;80;21014;-87
2022/06/05 11:28:33;;;;;;;4.92;3.22;;;;;;;35.12;22.08;98347.67;1786241;79;21472;-91
2022/06/05 11:31:35;;;;;;;3.83;3.20;;;;;;;34.55;23.68;98340.44;1785567;80;22115;-88
2022/06/05 11:34:32;;;;;;;3.90;3.58;;;;;;;35.39;22.63;98332.81;1771926;80;21474;-89
2022/06/05 11:37:29;;;;;;;3.20;2.90;;;;;;;35.76;22.48;98340.56;1764651;80;21160;-91
2022/06/05 11:40:38;;;;;;;4.53;2.95;;;;;;;36.37;20.18;98342.02;1772712;80;21471;-90
2022/06/05 11:43:35;;;;;;;4.37;3.12;;;;;;;36.98;20.42;98330.41;1787931;78;21036;-90
2022/06/05 11:46:09;;;;;;;3.62;2.75;;;;;;;35.45;22.70;98328.84;1776673;80;20982;-89
2022/06/05 11:49:16;;;;;;;3.33;2.50;;;;;;;34.77;22.75;98331.09;1756044;80;20986;-87
2022/06/05 11:52:01;;;;;;;;;;;;;;;35.88;20.01;98323.75;1786730;78;21117;-90
2022/06/05 11:55:00;;;;;;;7.28;2.87;;;;;;;35.46;20.30;98316.34;1787786;80;20411;-87
2022/06/05 11:57:40;;;;;;;8.35;3.25;;;;;;;35.61;21.24;98316.95;1750430;80;21034;-88
2022/06/05 12:00:23;;;;;;;9.70;4.10;;;;;;;34.38;22.92;98319.84;1745944;81;21032;-88
2022/06/05 12:03:02;;;;;;;4.37;3.52;;;;;;;32.32;25.84;98321.73;1756647;80;21747;-90
2022/06/05 12:06:00;;;;;;;7.17;3.98;;;;;;;30.65;27.51;98318.14;1780378;79;21145;-89